sensor_id;sensor_type;location;lat;lon;timestamp;pressure;altitude;pressure_sealevel;temperature;humidity
56402;BME280;42299;35.160;26.100;2022-10-31T00:00:20;101416.47;;;15.36;100.00
56402;BME280;42299;35.160;26.100;2022-10-31T00:01:41;101410.25;;;15.33;100.00
56402;BME280;42299;35.160;26.100;2022-10-31T00:03:04;101412.00;;;15.31;100.00
56402;BME280;42299;35.160;26.100;2022-10-31T00:04:25;101406.66;;;15.26;100.00
56402;BME280;42299;35.160;26.100;2022-10-31T00:05:49;101419.94;;;15.25;100.00
56402;BME280;42299;35.160;26.100;2022-10-31T00:07:10;101416.41;;;15.23;100.00
56402;BME280;42299;35.160;26.100;2022-10-31T00:08:33;101413.75;;;15.23;100.00
56402;BME280;42299;35.160;26.100;2022-10-31T00:09:56;101418.16;;;15.21;100.00
56402;BME280;42299;35.160;26.100;2022-10-31T00:11:17;101419.03;;;15.20;100.00
56402;BME280;42299;35.160;26.100;2022-10-31T00:12:39;101419.00;;;15.18;100.00
56402;BME280;42299;35.160;26.100;2022-10-31T00:14:01;101419.00;;;15.18;100.00
56402;BME280;42299;35.160;26.100;2022-10-31T00:15:25;101419.88;;;15.17;100.00
56402;BME280;42299;35.160;26.100;2022-10-31T00:16:46;101419.00;;;15.16;100.00
56402;BME280;42299;35.160;26.100;2022-10-31T00:18:09;101420.78;;;15.18;100.00
56402;BME280;42299;35.160;26.100;2022-10-31T00:19:31;101419.91;;;15.15;100.00
56402;BME280;42299;35.160;26.100;2022-10-31T00:20:59;101411.00;;;15.13;100.00
56402;BME280;42299;35.160;26.100;2022-10-31T00:22:20;101411.88;;;15.12;100.00
56402;BME280;42299;35.160;26.100;2022-10-31T00:23:43;101413.69;;;15.15;100.00
56402;BME280;42299;35.160;26.100;2022-10-31T00:25:04;101416.31;;;15.13;100.00
56402;BME280;42299;35.160;26.100;2022-10-31T00:26:27;101419.84;;;15.11;100.00
56402;BME280;42299;35.160;26.100;2022-10-31T00:27:49;101410.97;;;15.09;100.00
56402;BME280;42299;35.160;26.100;2022-10-31T00:29:11;101412.72;;;15.10;100.00
56402;BME280;42299;35.160;26.100;2022-10-31T00:30:34;101416.25;;;15.06;100.00
56402;BME280;42299;35.160;26.100;2022-10-31T00:31:57;101410.06;;;15.05;100.00
56402;BME280;42299;35.160;26.100;2022-10-31T00:33:18;101413.63;;;15.07;100.00
56402;BME280;42299;35.160;26.100;2022-10-31T00:34:40;101411.00;;;15.13;100.00
56402;BME280;42299;35.160;26.100;2022-10-31T00:36:05;101410.16;;;15.19;100.00
56402;BME280;42299;35.160;26.100;2022-10-31T00:37:28;101408.44;;;15.26;100.00
56402;BME280;42299;35.160;26.100;2022-10-31T00:38:50;101406.69;;;15.31;100.00
56402;BME280;42299;35.160;26.100;2022-10-31T00:40:12;101404.91;;;15.28;100.00
56402;BME280;42299;35.160;26.100;2022-10-31T00:41:34;101405.75;;;15.21;100.00
56402;BME280;42299;35.160;26.100;2022-10-31T00:42:57;101408.38;;;15.20;100.00
56402;BME280;42299;35.160;26.100;2022-10-31T00:44:18;101407.50;;;15.19;100.00
56402;BME280;42299;35.160;26.100;2022-10-31T00:45:42;101407.50;;;15.19;100.00
56402;BME280;42299;35.160;26.100;2022-10-31T00:47:05;101409.28;;;15.20;100.00
56402;BME280;42299;35.160;26.100;2022-10-31T00:48:28;101405.72;;;15.20;100.00
56402;BME280;42299;35.160;26.100;2022-10-31T00:49:50;101406.63;;;15.22;100.00
56402;BME280;42299;35.160;26.100;2022-10-31T00:51:12;101402.19;;;15.24;100.00
56402;BME280;42299;35.160;26.100;2022-10-31T00:52:36;101400.44;;;15.24;100.00
56402;BME280;42299;35.160;26.100;2022-10-31T00:53:57;101396.00;;;15.22;100.00
56402;BME280;42299;35.160;26.100;2022-10-31T00:55:19;101399.53;;;15.21;100.00
56402;BME280;42299;35.160;26.100;2022-10-31T00:56:41;101393.34;;;15.22;100.00
56402;BME280;42299;35.160;26.100;2022-10-31T00:58:03;101396.03;;;15.26;100.00
56402;BME280;42299;35.160;26.100;2022-10-31T00:59:24;101399.56;;;15.27;100.00
56402;BME280;42299;35.160;26.100;2022-10-31T01:00:48;101395.09;;;15.20;100.00
56402;BME280;42299;35.160;26.100;2022-10-31T01:02:15;101390.59;;;15.09;100.00
56402;BME280;42299;35.160;26.100;2022-10-31T01:03:38;101399.41;;;15.05;100.00
56402;BME280;42299;35.160;26.100;2022-10-31T01:05:04;101395.88;;;15.06;100.00
56402;BME280;42299;35.160;26.100;2022-10-31T01:06:27;101392.31;;;15.06;100.00
56402;BME280;42299;35.160;26.100;2022-10-31T01:07:51;101399.41;;;15.02;100.00
56402;BME280;42299;35.160;26.100;2022-10-31T01:09:12;101392.31;;;15.01;100.00
56402;BME280;42299;35.160;26.100;2022-10-31T01:10:35;101393.19;;;15.02;100.00
56402;BME280;42299;35.160;26.100;2022-10-31T01:11:56;101387.00;;;15.03;100.00
56402;BME280;42299;35.160;26.100;2022-10-31T01:13:18;101387.84;;;14.99;100.00
56402;BME280;42299;35.160;26.100;2022-10-31T01:14:43;101389.63;;;15.00;100.00
56402;BME280;42299;35.160;26.100;2022-10-31T01:16:10;101387.88;;;15.02;100.00
56402;BME280;42299;35.160;26.100;2022-10-31T01:17:32;101389.66;;;15.06;100.00
56402;BME280;42299;35.160;26.100;2022-10-31T01:18:54;101389.72;;;15.09;100.00
56402;BME280;42299;35.160;26.100;2022-10-31T01:20:17;101389.72;;;15.09;100.00
56402;BME280;42299;35.160;26.100;2022-10-31T01:21:39;101390.56;;;15.06;100.00
56402;BME280;42299;35.160;26.100;2022-10-31T01:23:01;101386.09;;;15.02;100.00
56402;BME280;42299;35.160;26.100;2022-10-31T01:24:23;101389.66;;;15.01;100.00
56402;BME280;42299;35.160;26.100;2022-10-31T01:25:45;101385.19;;;15.00;100.00
56402;BME280;42299;35.160;26.100;2022-10-31T01:27:07;101382.53;;;14.99;100.00
56402;BME280;42299;35.160;26.100;2022-10-31T01:28:29;101379.88;;;14.99;100.00
56402;BME280;42299;35.160;26.100;2022-10-31T01:29:51;101380.75;;;14.99;100.00
56402;BME280;42299;35.160;26.100;2022-10-31T01:31:17;101377.25;;;15.02;100.00
56402;BME280;42299;35.160;26.100;2022-10-31T01:32:39;101376.38;;;15.03;100.00
56402;BME280;42299;35.160;26.100;2022-10-31T01:34:01;101372.81;;;15.04;100.00
56402;BME280;42299;35.160;26.100;2022-10-31T01:35:24;101379.88;;;15.00;100.00
56402;BME280;42299;35.160;26.100;2022-10-31T01:36:45;101379.88;;;14.99;100.00
56402;BME280;42299;35.160;26.100;2022-10-31T01:38:11;101379.84;;;14.97;100.00
56402;BME280;42299;35.160;26.100;2022-10-31T01:39:33;101375.44;;;14.99;100.00
56402;BME280;42299;35.160;26.100;2022-10-31T01:40:55;101377.25;;;15.02;100.00
56402;BME280;42299;35.160;26.100;2022-10-31T01:42:19;101376.34;;;15.01;100.00
56402;BME280;42299;35.160;26.100;2022-10-31T01:43:48;101376.34;;;15.00;100.00
56402;BME280;42299;35.160;26.100;2022-10-31T01:45:10;101372.81;;;15.02;100.00
56402;BME280;42299;35.160;26.100;2022-10-31T01:46:38;101371.94;;;15.06;100.00
56402;BME280;42299;35.160;26.100;2022-10-31T01:48:01;101372.84;;;15.10;100.00
56402;BME280;42299;35.160;26.100;2022-10-31T01:49:35;101377.31;;;15.12;100.00
56402;BME280;42299;35.160;26.100;2022-10-31T01:50:57;101371.06;;;15.10;100.00
56402;BME280;42299;35.160;26.100;2022-10-31T01:52:24;101372.84;;;15.08;100.00
56402;BME280;42299;35.160;26.100;2022-10-31T01:53:50;101377.25;;;15.06;100.00
56402;BME280;42299;35.160;26.100;2022-10-31T01:55:17;101371.06;;;15.06;100.00
56402;BME280;42299;35.160;26.100;2022-10-31T01:56:42;101370.19;;;15.07;100.00
56402;BME280;42299;35.160;26.100;2022-10-31T01:58:10;101378.16;;;15.10;100.00
56402;BME280;42299;35.160;26.100;2022-10-31T01:59:35;101378.16;;;15.10;100.00
56402;BME280;42299;35.160;26.100;2022-10-31T02:01:01;101376.41;;;15.09;100.00
56402;BME280;42299;35.160;26.100;2022-10-31T02:02:25;101371.97;;;15.08;100.00
56402;BME280;42299;35.160;26.100;2022-10-31T02:03:50;101378.13;;;15.02;100.00
56402;BME280;42299;35.160;26.100;2022-10-31T02:05:17;101375.47;;;15.01;100.00
56402;BME280;42299;35.160;26.100;2022-10-31T02:06:43;101378.09;;;14.99;100.00
56402;BME280;42299;35.160;26.100;2022-10-31T02:08:11;101378.97;;;14.98;100.00
56402;BME280;42299;35.160;26.100;2022-10-31T02:09:34;101379.84;;;14.96;100.00
56402;BME280;42299;35.160;26.100;2022-10-31T02:11:00;101374.47;;;14.91;100.00
56402;BME280;42299;35.160;26.100;2022-10-31T02:12:22;101378.91;;;14.91;100.00
56402;BME280;42299;35.160;26.100;2022-10-31T02:13:51;101372.72;;;14.89;100.00
56402;BME280;42299;35.160;26.100;2022-10-31T02:15:12;101383.31;;;14.90;100.00
56402;BME280;42299;35.160;26.100;2022-10-31T02:16:37;101378.91;;;14.88;100.00
56402;BME280;42299;35.160;26.100;2022-10-31T02:18:02;101374.50;;;14.90;100.00
56402;BME280;42299;35.160;26.100;2022-10-31T02:19:32;101380.69;;;14.89;100.00
56402;BME280;42299;35.160;26.100;2022-10-31T02:21:01;101370.06;;;14.89;100.00
56402;BME280;42299;35.160;26.100;2022-10-31T02:22:29;101379.78;;;14.91;100.00
56402;BME280;42299;35.160;26.100;2022-10-31T02:24:21;101378.94;;;14.94;100.00
56402;BME280;42299;35.160;26.100;2022-10-31T02:26:10;101377.16;;;14.93;100.00
56402;BME280;42299;35.160;26.100;2022-10-31T02:27:52;101373.59;;;14.88;100.00
56402;BME280;42299;35.160;26.100;2022-10-31T02:29:53;101371.75;;;14.84;100.00
56402;BME280;42299;35.160;26.100;2022-10-31T02:31:27;101377.97;;;14.81;100.00
56402;BME280;42299;35.160;26.100;2022-10-31T02:33:05;101369.06;;;14.79;100.00
56402;BME280;42299;35.160;26.100;2022-10-31T02:34:36;101365.50;;;14.77;100.00
56402;BME280;42299;35.160;26.100;2022-10-31T02:36:06;101369.91;;;14.73;100.00
56402;BME280;42299;35.160;26.100;2022-10-31T02:37:38;101364.56;;;14.70;100.00
56402;BME280;42299;35.160;26.100;2022-10-31T02:39:11;101368.13;;;14.69;100.00
56402;BME280;42299;35.160;26.100;2022-10-31T02:40:42;101375.22;;;14.69;100.00
56402;BME280;42299;35.160;26.100;2022-10-31T02:42:41;101376.09;;;14.69;100.00
56402;BME280;42299;35.160;26.100;2022-10-31T02:44:18;101373.44;;;14.72;100.00
56402;BME280;42299;35.160;26.100;2022-10-31T02:45:47;101377.03;;;14.76;100.00
56402;BME280;42299;35.160;26.100;2022-10-31T02:47:14;101376.16;;;14.79;100.00
56402;BME280;42299;35.160;26.100;2022-10-31T02:48:39;101377.03;;;14.79;100.00
56402;BME280;42299;35.160;26.100;2022-10-31T02:50:06;101377.09;;;14.82;100.00
56402;BME280;42299;35.160;26.100;2022-10-31T02:51:29;101372.66;;;14.83;100.00
56402;BME280;42299;35.160;26.100;2022-10-31T02:52:51;101377.09;;;14.82;100.00
56402;BME280;42299;35.160;26.100;2022-10-31T02:54:18;101377.09;;;14.82;100.00
56402;BME280;42299;35.160;26.100;2022-10-31T02:55:58;101381.44;;;14.77;100.00
56402;BME280;42299;35.160;26.100;2022-10-31T02:57:23;101382.34;;;14.74;100.00
56402;BME280;42299;35.160;26.100;2022-10-31T02:58:49;101384.06;;;14.72;100.00
56402;BME280;42299;35.160;26.100;2022-10-31T03:00:12;101382.28;;;14.68;100.00
56402;BME280;42299;35.160;26.100;2022-10-31T03:01:58;101385.81;;;14.67;100.00
56402;BME280;42299;35.160;26.100;2022-10-31T03:03:32;101390.31;;;14.74;100.00
56402;BME280;42299;35.160;26.100;2022-10-31T03:05:10;101393.84;;;14.75;100.00
56402;BME280;42299;35.160;26.100;2022-10-31T03:06:36;101397.41;;;14.77;100.00
56402;BME280;42299;35.160;26.100;2022-10-31T03:08:08;101395.66;;;14.79;100.00
56402;BME280;42299;35.160;26.100;2022-10-31T03:09:39;101398.34;;;14.82;100.00
56402;BME280;42299;35.160;26.100;2022-10-31T03:11:07;101393.94;;;14.86;100.00
56402;BME280;42299;35.160;26.100;2022-10-31T03:12:38;101401.94;;;14.90;100.00
56402;BME280;42299;35.160;26.100;2022-10-31T03:14:06;101394.84;;;14.91;100.00
56402;BME280;42299;35.160;26.100;2022-10-31T03:15:34;101399.28;;;14.90;100.00
56402;BME280;42299;35.160;26.100;2022-10-31T03:17:00;101401.94;;;14.90;100.00
56402;BME280;42299;35.160;26.100;2022-10-31T03:18:30;101402.84;;;14.89;100.00
56402;BME280;42299;35.160;26.100;2022-10-31T03:19:57;101401.94;;;14.87;100.00
56402;BME280;42299;35.160;26.100;2022-10-31T03:21:26;101401.91;;;14.86;100.00
56402;BME280;42299;35.160;26.100;2022-10-31T03:22:51;101401.91;;;14.86;100.00
56402;BME280;42299;35.160;26.100;2022-10-31T03:24:15;101398.34;;;14.84;100.00
56402;BME280;42299;35.160;26.100;2022-10-31T03:25:39;101406.34;;;14.85;100.00
56402;BME280;42299;35.160;26.100;2022-10-31T03:27:06;101401.03;;;14.85;100.00
56402;BME280;42299;35.160;26.100;2022-10-31T03:28:33;101404.56;;;14.86;100.00
56402;BME280;42299;35.160;26.100;2022-10-31T03:30:02;101405.47;;;14.86;100.00
56402;BME280;42299;35.160;26.100;2022-10-31T03:31:38;101402.81;;;14.86;100.00
56402;BME280;42299;35.160;26.100;2022-10-31T03:33:04;101409.03;;;14.88;100.00
56402;BME280;42299;35.160;26.100;2022-10-31T03:34:30;101409.03;;;14.91;100.00
56402;BME280;42299;35.160;26.100;2022-10-31T03:35:54;101403.75;;;14.93;100.00
56402;BME280;42299;35.160;26.100;2022-10-31T03:37:19;101402.00;;;14.95;100.00
56402;BME280;42299;35.160;26.100;2022-10-31T03:38:45;101407.31;;;14.98;100.00
56402;BME280;42299;35.160;26.100;2022-10-31T03:40:12;101406.44;;;14.97;100.00
56402;BME280;42299;35.160;26.100;2022-10-31T03:41:40;101410.00;;;14.99;100.00
56402;BME280;42299;35.160;26.100;2022-10-31T03:43:04;101409.09;;;14.97;100.00
56402;BME280;42299;35.160;26.100;2022-10-31T03:44:31;101402.84;;;14.92;100.00
56402;BME280;42299;35.160;26.100;2022-10-31T03:45:56;101403.75;;;14.90;100.00
56402;BME280;42299;35.160;26.100;2022-10-31T03:47:19;101402.81;;;14.86;100.00
56402;BME280;42299;35.160;26.100;2022-10-31T03:48:43;101401.03;;;14.85;100.00
56402;BME280;42299;35.160;26.100;2022-10-31T03:50:09;101397.47;;;14.82;100.00
56402;BME280;42299;35.160;26.100;2022-10-31T03:51:38;101406.31;;;14.82;100.00
56402;BME280;42299;35.160;26.100;2022-10-31T03:53:05;101404.53;;;14.81;100.00
56402;BME280;42299;35.160;26.100;2022-10-31T03:54:35;101401.84;;;14.78;100.00
56402;BME280;42299;35.160;26.100;2022-10-31T03:56:02;101408.06;;;14.79;100.00
56402;BME280;42299;35.160;26.100;2022-10-31T03:57:30;101408.94;;;14.76;100.00
56402;BME280;42299;35.160;26.100;2022-10-31T03:58:59;101407.16;;;14.77;100.00
56402;BME280;42299;35.160;26.100;2022-10-31T04:00:23;101410.72;;;14.80;100.00
56402;BME280;42299;35.160;26.100;2022-10-31T04:01:52;101407.22;;;14.83;100.00
56402;BME280;42299;35.160;26.100;2022-10-31T04:03:18;101408.09;;;14.82;100.00
56402;BME280;42299;35.160;26.100;2022-10-31T04:04:46;101414.31;;;14.85;100.00
56402;BME280;42299;35.160;26.100;2022-10-31T04:06:14;101410.81;;;14.89;100.00
56402;BME280;42299;35.160;26.100;2022-10-31T04:07:41;101405.50;;;14.89;100.00
56402;BME280;42299;35.160;26.100;2022-10-31T04:09:06;101411.66;;;14.85;100.00
56402;BME280;42299;35.160;26.100;2022-10-31T04:10:32;101416.97;;;14.82;100.00
56402;BME280;42299;35.160;26.100;2022-10-31T04:11:56;101409.81;;;14.78;100.00
56402;BME280;42299;35.160;26.100;2022-10-31T04:13:38;101409.81;;;14.75;100.00
56402;BME280;42299;35.160;26.100;2022-10-31T04:15:08;101414.19;;;14.71;100.00
56402;BME280;42299;35.160;26.100;2022-10-31T04:16:34;101415.06;;;14.69;100.00
56402;BME280;42299;35.160;26.100;2022-10-31T04:17:57;101410.59;;;14.66;100.00
56402;BME280;42299;35.160;26.100;2022-10-31T04:19:21;101413.25;;;14.66;100.00
56402;BME280;42299;35.160;26.100;2022-10-31T04:20:43;101411.50;;;14.67;100.00
56402;BME280;42299;35.160;26.100;2022-10-31T04:22:08;101417.72;;;14.69;100.00
56402;BME280;42299;35.160;26.100;2022-10-31T04:23:32;101420.34;;;14.66;100.00
56402;BME280;42299;35.160;26.100;2022-10-31T04:24:58;101419.47;;;14.67;100.00
56402;BME280;42299;35.160;26.100;2022-10-31T04:26:21;101424.75;;;14.65;100.00
56402;BME280;42299;35.160;26.100;2022-10-31T04:27:42;101430.06;;;14.62;100.00
56402;BME280;42299;35.160;26.100;2022-10-31T04:29:05;101424.72;;;14.59;100.00
56402;BME280;42299;35.160;26.100;2022-10-31T04:30:26;101427.34;;;14.58;100.00
56402;BME280;42299;35.160;26.100;2022-10-31T04:31:49;101429.13;;;14.56;100.00
56402;BME280;42299;35.160;26.100;2022-10-31T04:33:11;101426.47;;;14.56;100.00
56402;BME280;42299;35.160;26.100;2022-10-31T04:34:34;101422.94;;;14.57;100.00
56402;BME280;42299;35.160;26.100;2022-10-31T04:35:56;101435.31;;;14.56;100.00
56402;BME280;42299;35.160;26.100;2022-10-31T04:37:19;101423.81;;;14.56;100.00
56402;BME280;42299;35.160;26.100;2022-10-31T04:38:42;101428.25;;;14.57;100.00
56402;BME280;42299;35.160;26.100;2022-10-31T04:40:24;101430.00;;;14.56;100.00
56402;BME280;42299;35.160;26.100;2022-10-31T04:42:05;101432.63;;;14.55;100.00
56402;BME280;42299;35.160;26.100;2022-10-31T04:43:28;101426.47;;;14.56;100.00
56402;BME280;42299;35.160;26.100;2022-10-31T04:44:53;101418.50;;;14.56;100.00
56402;BME280;42299;35.160;26.100;2022-10-31T04:46:15;101432.66;;;14.58;100.00
56402;BME280;42299;35.160;26.100;2022-10-31T04:47:37;101427.34;;;14.58;100.00
56402;BME280;42299;35.160;26.100;2022-10-31T04:49:00;101430.00;;;14.56;100.00
56402;BME280;42299;35.160;26.100;2022-10-31T04:50:23;101437.09;;;14.56;100.00
56402;BME280;42299;35.160;26.100;2022-10-31T04:51:45;101438.84;;;14.55;100.00
56402;BME280;42299;35.160;26.100;2022-10-31T04:53:09;101439.75;;;14.56;100.00
56402;BME280;42299;35.160;26.100;2022-10-31T04:54:44;101440.63;;;14.56;100.00
56402;BME280;42299;35.160;26.100;2022-10-31T04:56:25;101435.28;;;14.55;100.00
56402;BME280;42299;35.160;26.100;2022-10-31T04:57:56;101446.78;;;14.54;100.00
56402;BME280;42299;35.160;26.100;2022-10-31T04:59:20;101445.06;;;14.56;100.00
56402;BME280;42299;35.160;26.100;2022-10-31T05:00:46;101439.75;;;14.59;100.00
56402;BME280;42299;35.160;26.100;2022-10-31T05:02:09;101443.34;;;14.62;100.00
56402;BME280;42299;35.160;26.100;2022-10-31T05:03:38;101449.56;;;14.66;100.00
56402;BME280;42299;35.160;26.100;2022-10-31T05:05:01;101449.63;;;14.69;100.00
56402;BME280;42299;35.160;26.100;2022-10-31T05:06:25;101449.63;;;14.72;100.00
56402;BME280;42299;35.160;26.100;2022-10-31T05:07:48;101445.19;;;14.71;100.00
56402;BME280;42299;35.160;26.100;2022-10-31T05:09:12;101442.53;;;14.69;100.00
56402;BME280;42299;35.160;26.100;2022-10-31T05:10:35;101446.06;;;14.68;100.00
56402;BME280;42299;35.160;26.100;2022-10-31T05:11:58;101444.25;;;14.66;100.00
56402;BME280;42299;35.160;26.100;2022-10-31T05:13:54;101447.75;;;14.60;100.00
56402;BME280;42299;35.160;26.100;2022-10-31T05:15:37;101448.63;;;14.59;100.00
56402;BME280;42299;35.160;26.100;2022-10-31T05:17:20;101457.50;;;14.60;100.00
56402;BME280;42299;35.160;26.100;2022-10-31T05:19:01;101448.66;;;14.61;100.00
56402;BME280;42299;35.160;26.100;2022-10-31T05:20:55;101455.78;;;14.63;100.00
56402;BME280;42299;35.160;26.100;2022-10-31T05:22:31;101457.53;;;14.66;100.00
56402;BME280;42299;35.160;26.100;2022-10-31T05:23:54;101453.16;;;14.69;100.00
56402;BME280;42299;35.160;26.100;2022-10-31T05:25:21;101458.47;;;14.71;100.00
56402;BME280;42299;35.160;26.100;2022-10-31T05:26:44;101459.38;;;14.73;100.00
56402;BME280;42299;35.160;26.100;2022-10-31T05:28:08;101462.97;;;14.78;100.00
56402;BME280;42299;35.160;26.100;2022-10-31T05:29:29;101465.69;;;14.84;100.00
56402;BME280;42299;35.160;26.100;2022-10-31T05:30:55;101465.75;;;14.90;100.00
56402;BME280;42299;35.160;26.100;2022-10-31T05:32:17;101470.22;;;14.94;100.00
56402;BME280;42299;35.160;26.100;2022-10-31T05:34:15;101472.00;;;14.94;100.00
56402;BME280;42299;35.160;26.100;2022-10-31T05:35:56;101473.78;;;14.98;100.00
56402;BME280;42299;35.160;26.100;2022-10-31T05:37:36;101473.84;;;15.04;100.00
56402;BME280;42299;35.160;26.100;2022-10-31T05:38:58;101468.59;;;15.11;100.00
56402;BME280;42299;35.160;26.100;2022-10-31T05:40:28;101481.13;;;15.22;100.00
56402;BME280;42299;35.160;26.100;2022-10-31T05:41:49;101477.63;;;15.32;100.00
56402;BME280;42299;35.160;26.100;2022-10-31T05:43:19;101485.72;;;15.42;100.00
56402;BME280;42299;35.160;26.100;2022-10-31T05:44:41;101486.66;;;15.52;100.00
56402;BME280;42299;35.160;26.100;2022-10-31T05:46:16;101491.19;;;15.59;100.00
56402;BME280;42299;35.160;26.100;2022-10-31T05:48:08;101485.91;;;15.67;100.00
56402;BME280;42299;35.160;26.100;2022-10-31T05:50:03;101485.13;;;15.81;100.00
56402;BME280;42299;35.160;26.100;2022-10-31T05:51:55;101487.84;;;15.97;100.00
56402;BME280;42299;35.160;26.100;2022-10-31T05:53:27;101487.03;;;16.07;100.00
56402;BME280;42299;35.160;26.100;2022-10-31T05:54:50;101490.59;;;16.15;100.00
56402;BME280;42299;35.160;26.100;2022-10-31T05:56:13;101495.06;;;16.22;100.00
56402;BME280;42299;35.160;26.100;2022-10-31T05:57:36;101490.66;;;16.27;100.00
56402;BME280;42299;35.160;26.100;2022-10-31T05:58:57;101490.69;;;16.33;100.00
56402;BME280;42299;35.160;26.100;2022-10-31T06:00:21;101492.47;;;16.42;100.00
56402;BME280;42299;35.160;26.100;2022-10-31T06:01:44;101497.88;;;16.52;100.00
56402;BME280;42299;35.160;26.100;2022-10-31T06:03:32;101496.16;;;16.68;100.00
56402;BME280;42299;35.160;26.100;2022-10-31T06:04:57;101504.19;;;16.83;100.00
56402;BME280;42299;35.160;26.100;2022-10-31T06:06:20;101498.88;;;16.95;100.00
56402;BME280;42299;35.160;26.100;2022-10-31T06:07:43;101491.75;;;17.00;100.00
56402;BME280;42299;35.160;26.100;2022-10-31T06:09:04;101494.44;;;17.08;100.00
56402;BME280;42299;35.160;26.100;2022-10-31T06:10:29;101493.56;;;17.18;100.00
56402;BME280;42299;35.160;26.100;2022-10-31T06:11:53;101487.31;;;17.22;100.00
56402;BME280;42299;35.160;26.100;2022-10-31T06:13:18;101495.31;;;17.28;100.00
56402;BME280;42299;35.160;26.100;2022-10-31T06:14:47;101492.66;;;17.33;100.00
56402;BME280;42299;35.160;26.100;2022-10-31T06:16:10;101499.78;;;17.35;100.00
56402;BME280;42299;35.160;26.100;2022-10-31T06:17:33;101493.56;;;17.32;100.00
56402;BME280;42299;35.160;26.100;2022-10-31T06:18:59;101495.31;;;17.34;100.00
56402;BME280;42299;35.160;26.100;2022-10-31T06:20:22;101496.22;;;17.36;100.00
56402;BME280;42299;35.160;26.100;2022-10-31T06:21:51;101491.75;;;17.40;100.00
56402;BME280;42299;35.160;26.100;2022-10-31T06:23:14;101497.09;;;17.47;100.00
56402;BME280;42299;35.160;26.100;2022-10-31T06:24:38;101498.88;;;17.56;100.00
56402;BME280;42299;35.160;26.100;2022-10-31T06:26:32;101502.44;;;17.67;100.00
56402;BME280;42299;35.160;26.100;2022-10-31T06:27:56;101502.44;;;17.78;100.00
56402;BME280;42299;35.160;26.100;2022-10-31T06:29:24;101511.31;;;17.80;100.00
56402;BME280;42299;35.160;26.100;2022-10-31T06:31:05;101512.22;;;17.73;100.00
56402;BME280;42299;35.160;26.100;2022-10-31T06:32:27;101511.38;;;17.63;100.00
56402;BME280;42299;35.160;26.100;2022-10-31T06:33:48;101510.44;;;17.55;100.00
56402;BME280;42299;35.160;26.100;2022-10-31T06:35:11;101513.13;;;17.57;100.00
56402;BME280;42299;35.160;26.100;2022-10-31T06:36:34;101507.75;;;17.60;100.00
56402;BME280;42299;35.160;26.100;2022-10-31T06:37:57;101505.13;;;17.61;100.00
56402;BME280;42299;35.160;26.100;2022-10-31T06:39:38;101508.66;;;17.74;100.00
56402;BME280;42299;35.160;26.100;2022-10-31T06:41:04;101505.94;;;18.04;100.00
56402;BME280;42299;35.160;26.100;2022-10-31T06:42:36;101509.38;;;18.35;100.00
56402;BME280;42299;35.160;26.100;2022-10-31T06:44:00;101506.63;;;18.58;100.00
56402;BME280;42299;35.160;26.100;2022-10-31T06:45:44;101501.16;;;18.82;100.00
56402;BME280;42299;35.160;26.100;2022-10-31T06:47:22;101500.84;;;19.22;100.00
56402;BME280;42299;35.160;26.100;2022-10-31T06:48:50;101498.75;;;19.60;100.00
56402;BME280;42299;35.160;26.100;2022-10-31T06:50:17;101496.56;;;19.97;100.00
56402;BME280;42299;35.160;26.100;2022-10-31T06:51:41;101487.38;;;20.19;100.00
56402;BME280;42299;35.160;26.100;2022-10-31T06:53:02;101484.72;;;20.18;100.00
56402;BME280;42299;35.160;26.100;2022-10-31T06:54:25;101471.44;;;20.07;100.00
56402;BME280;42299;35.160;26.100;2022-10-31T06:55:48;101475.13;;;19.97;100.00
56402;BME280;42299;35.160;26.100;2022-10-31T06:57:12;101483.28;;;19.88;100.00
56402;BME280;42299;35.160;26.100;2022-10-31T06:58:34;101483.28;;;19.88;100.00
56402;BME280;42299;35.160;26.100;2022-10-31T07:00:01;101484.13;;;19.90;100.00
56402;BME280;42299;35.160;26.100;2022-10-31T07:01:30;101485.00;;;19.94;100.00
56402;BME280;42299;35.160;26.100;2022-10-31T07:02:55;101484.09;;;19.95;100.00
56402;BME280;42299;35.160;26.100;2022-10-31T07:04:18;101476.97;;;19.95;100.00
56402;BME280;42299;35.160;26.100;2022-10-31T07:05:42;101461.72;;;19.97;100.00
56402;BME280;42299;35.160;26.100;2022-10-31T07:07:05;101467.75;;;20.16;100.00
56402;BME280;42299;35.160;26.100;2022-10-31T07:08:29;101472.03;;;20.34;100.00
56402;BME280;42299;35.160;26.100;2022-10-31T07:09:50;101468.41;;;20.36;100.00
56402;BME280;42299;35.160;26.100;2022-10-31T07:11:18;101476.19;;;20.57;100.00
56402;BME280;42299;35.160;26.100;2022-10-31T07:12:42;101473.09;;;20.85;100.00
56402;BME280;42299;35.160;26.100;2022-10-31T07:14:05;101474.66;;;20.99;100.00
56402;BME280;42299;35.160;26.100;2022-10-31T07:15:33;101469.25;;;21.01;99.07
56402;BME280;42299;35.160;26.100;2022-10-31T07:16:56;101463.97;;;20.95;98.78
56402;BME280;42299;35.160;26.100;2022-10-31T07:18:26;101466.84;;;20.84;98.15
56402;BME280;42299;35.160;26.100;2022-10-31T07:19:48;101466.03;;;20.79;96.97
56402;BME280;42299;35.160;26.100;2022-10-31T07:21:11;101464.25;;;20.77;96.33
56402;BME280;42299;35.160;26.100;2022-10-31T07:22:34;101467.84;;;20.76;95.84